Time;durP1;ratioP1;P1;durP2;ratioP2;P2;SDS_P1;SDS_P2;PMS_P1;PMS_P2;Temp;Humidity;BMP_temperature;BMP_pressure;BME280_temperature;BME280_humidity;BME280_pressure;Samples;Min_cycle;Max_cycle;Signal;HPM_P1;HPM_P2
2022/12/31 00:00:32;;;;;;;35.30;18.38;;;;;;;7.28;nan;101417.50;5041134;28;20116;-69
2022/12/31 00:02:57;;;;;;;41.53;19.13;;;;;;;7.26;nan;101412.47;5028930;28;20055;-69
2022/12/31 00:05:23;;;;;;;35.83;18.38;;;;;;;7.16;nan;101404.00;5046702;28;20028;-68
2022/12/31 00:07:48;;;;;;;37.63;18.20;;;;;;;7.26;nan;101414.28;5045599;28;20059;-70
2022/12/31 00:10:14;;;;;;;35.92;17.95;;;;;;;7.30;nan;101420.75;5037920;28;20030;-69
2022/12/31 00:12:39;;;;;;;32.88;18.27;;;;;;;7.29;nan;101427.00;5031014;28;20029;-69
2022/12/31 00:15:05;;;;;;;35.97;18.48;;;;;;;7.33;nan;101431.72;5033795;28;20033;-69
2022/12/31 00:17:31;;;;;;;29.60;17.73;;;;;;;7.33;nan;101434.34;5039617;28;20124;-69
2022/12/31 00:19:56;;;;;;;31.15;17.10;;;;;;;7.29;nan;101430.44;5032054;28;20109;-69
2022/12/31 00:22:22;;;;;;;35.05;17.30;;;;;;;7.31;nan;101441.56;5032991;28;20024;-69
2022/12/31 00:24:47;;;;;;;27.45;16.58;;;;;;;7.23;nan;101423.28;5053345;28;20083;-68
2022/12/31 00:27:12;;;;;;;27.55;16.50;;;;;;;7.30;nan;101432.03;5042892;28;20029;-68
2022/12/31 00:29:38;;;;;;;31.38;18.52;;;;;;;7.31;nan;101444.19;5032473;28;20455;-68
2022/12/31 00:32:03;;;;;;;33.08;17.92;;;;;;;7.31;nan;101440.75;5036226;28;20037;-69
2022/12/31 00:34:28;;;;;;;34.15;20.40;;;;;;;7.28;nan;101444.53;5034727;28;20490;-68
2022/12/31 00:36:54;;;;;;;29.30;18.20;;;;;;;7.28;nan;101459.41;5045276;28;20025;-68
2022/12/31 00:39:19;;;;;;;31.63;17.85;;;;;;;7.26;nan;101450.94;5033065;28;20029;-67
2022/12/31 00:41:45;;;;;;;29.40;18.38;;;;;;;7.23;nan;101457.31;5040665;28;20028;-67
2022/12/31 00:44:11;;;;;;;27.83;16.95;;;;;;;7.17;nan;101456.25;5040470;28;20025;-68
2022/12/31 00:46:37;;;;;;;29.10;16.52;;;;;;;7.25;nan;101468.44;5038649;28;20026;-67
2022/12/31 00:49:02;;;;;;;28.90;16.60;;;;;;;7.22;nan;101472.22;5046037;28;20071;-67
2022/12/31 00:51:28;;;;;;;27.48;16.88;;;;;;;7.02;nan;101448.34;5036839;28;20467;-66
2022/12/31 00:53:55;;;;;;;32.45;18.52;;;;;;;7.07;nan;101450.44;5038604;28;20083;-68
2022/12/31 00:56:23;;;;;;;33.25;17.52;;;;;;;7.17;nan;101466.72;5039246;28;20059;-67
2022/12/31 00:58:49;;;;;;;30.33;17.58;;;;;;;7.08;nan;101459.09;5042824;28;20021;-67
2022/12/31 01:01:37;;;;;;;31.45;18.20;;;;;;;7.17;nan;101474.56;5044414;28;20064;-67
2022/12/31 01:04:06;;;;;;;28.33;17.33;;;;;;;7.09;nan;101458.94;5031312;28;20090;-67
2022/12/31 01:06:31;;;;;;;32.10;18.17;;;;;;;7.11;nan;101469.22;5036037;28;20779;-67
2022/12/31 01:08:57;;;;;;;28.67;17.40;;;;;;;7.03;nan;101462.25;5039163;28;20029;-67
2022/12/31 01:11:27;;;;;;;31.00;17.27;;;;;;;6.92;nan;101447.75;5045744;28;20032;-67
2022/12/31 01:14:14;;;;;;;30.88;17.10;;;;;;;7.01;nan;101475.50;5038093;28;20029;-68
2022/12/31 01:16:42;;;;;;;32.95;17.83;;;;;;;7.00;nan;101475.69;5036818;28;20494;-67
2022/12/31 01:19:10;;;;;;;30.10;17.80;;;;;;;6.95;nan;101473.59;5032790;28;20512;-67
2022/12/31 01:21:37;;;;;;;30.27;17.55;;;;;;;6.88;nan;101471.84;5046999;28;20029;-68
2022/12/31 01:24:03;;;;;;;30.48;17.52;;;;;;;6.88;nan;101483.13;5040181;28;20020;-67
2022/12/31 01:26:31;;;;;;;33.97;17.50;;;;;;;6.86;nan;101479.88;5035355;28;20524;-67
2022/12/31 01:28:56;;;;;;;33.88;18.02;;;;;;;6.81;nan;101463.88;5036502;28;20044;-67
2022/12/31 01:31:22;;;;;;;32.33;17.55;;;;;;;6.79;nan;101469.25;5041355;28;20032;-67
2022/12/31 01:33:49;;;;;;;29.85;17.90;;;;;;;6.73;nan;101454.28;5039862;28;20040;-67
2022/12/31 01:36:25;;;;;;;31.52;16.95;;;;;;;6.86;nan;101471.22;5034214;28;20650;-67
2022/12/31 01:38:52;;;;;;;30.73;17.75;;;;;;;6.84;nan;101467.94;5033617;28;20028;-67
2022/12/31 01:41:20;;;;;;;33.00;17.85;;;;;;;6.87;nan;101472.81;5034034;28;20032;-67
2022/12/31 01:43:47;;;;;;;28.38;16.45;;;;;;;6.82;nan;101465.47;5034418;28;20132;-66
2022/12/31 01:46:37;;;;;;;32.97;17.70;;;;;;;6.76;nan;101443.44;5029596;28;20029;-67
2022/12/31 01:49:14;;;;;;;31.77;17.25;;;;;;;6.91;nan;101453.16;5026450;28;20060;-66
2022/12/31 01:51:42;;;;;;;30.85;17.35;;;;;;;6.93;nan;101459.84;5037320;28;20031;-67
2022/12/31 01:54:11;;;;;;;31.25;17.20;;;;;;;6.95;nan;101470.16;5041663;28;21359;-67
2022/12/31 01:56:38;;;;;;;28.33;17.20;;;;;;;6.93;nan;101465.09;5035647;28;20033;-66
2022/12/31 01:59:06;;;;;;;31.92;17.27;;;;;;;6.93;nan;101464.28;5037169;28;20023;-67
2022/12/31 02:01:35;;;;;;;28.30;16.33;;;;;;;6.96;nan;101477.03;5032669;28;20040;-68
2022/12/31 02:04:07;;;;;;;29.15;16.33;;;;;;;6.87;nan;101467.59;5031840;28;20152;-67
2022/12/31 02:06:39;;;;;;;32.17;16.83;;;;;;;6.77;nan;101449.50;5048357;28;20016;-67
2022/12/31 02:09:05;;;;;;;26.25;16.05;;;;;;;6.91;nan;101480.16;5037052;28;20036;-67
2022/12/31 02:11:35;;;;;;;27.75;16.52;;;;;;;6.84;nan;101468.75;5035687;28;20052;-67
2022/12/31 02:14:06;;;;;;;;;;;;;;;6.92;nan;101481.81;5034035;28;20033;-67
2022/12/31 02:16:52;;;;;;;30.23;15.90;;;;;;;6.88;nan;101474.47;5031512;28;19977;-67
2022/12/31 02:19:54;;;;;;;29.15;16.50;;;;;;;6.84;nan;101475.78;5031153;28;20052;-68
2022/12/31 02:22:28;;;;;;;26.75;16.17;;;;;;;6.78;nan;101479.94;5031395;28;20025;-67
2022/12/31 02:25:12;;;;;;;31.88;17.55;;;;;;;6.72;nan;101485.84;5043226;28;20025;-67
2022/12/31 02:27:59;;;;;;;30.80;17.13;;;;;;;6.73;nan;101490.91;5030605;28;20033;-68
2022/12/31 02:30:29;;;;;;;29.20;16.20;;;;;;;6.62;nan;101483.44;5035211;28;20029;-67
2022/12/31 02:33:12;;;;;;;28.15;16.85;;;;;;;6.73;nan;101492.72;5034363;28;20870;-67
2022/12/31 02:35:48;;;;;;;30.05;17.02;;;;;;;6.70;nan;101483.38;5044710;28;20034;-67
2022/12/31 02:38:20;;;;;;;29.58;16.67;;;;;;;6.73;nan;101492.72;5035621;28;21346;-67
2022/12/31 02:40:46;;;;;;;26.70;15.73;;;;;;;6.38;nan;101451.19;5033680;28;20441;-67
2022/12/31 02:43:12;;;;;;;26.98;15.98;;;;;;;6.69;nan;101496.66;5031703;28;20025;-68
2022/12/31 02:45:41;;;;;;;32.17;16.85;;;;;;;6.63;nan;101502.56;5032597;28;20029;-69
2022/12/31 02:48:07;;;;;;;30.05;18.05;;;;;;;6.62;nan;101493.09;5032545;28;20086;-68
2022/12/31 02:50:57;;;;;;;30.30;16.60;;;;;;;6.59;nan;101495.06;5030248;28;20104;-68
2022/12/31 02:53:22;;;;;;;28.38;16.50;;;;;;;6.59;nan;101497.69;5037350;28;20097;-68
2022/12/31 02:56:05;;;;;;;28.48;16.02;;;;;;;6.57;nan;101499.66;5042325;28;20032;-68
2022/12/31 03:04:31;;;;;;;28.67;16.13;;;;;;;6.48;nan;101505.09;5035784;28;20035;-69
2022/12/31 03:06:59;;;;;;;29.92;16.52;;;;;;;6.44;nan;101498.56;5039711;28;20171;-69
2022/12/31 03:09:25;;;;;;;25.10;14.60;;;;;;;6.38;nan;101490.41;5035248;28;20021;-69
2022/12/31 03:14:34;;;;;;;21.95;13.20;;;;;;;6.39;nan;101499.06;5038948;28;20171;-67
2022/12/31 03:16:59;;;;;;;24.73;14.52;;;;;;;6.38;nan;101497.47;5042971;28;20546;-68
2022/12/31 03:22:26;;;;;;;30.70;16.38;;;;;;;6.30;nan;101485.25;5039818;28;20032;-69
2022/12/31 03:27:39;;;;;;;27.92;16.25;;;;;;;;;;5036691;28;20036;-68
2022/12/31 03:30:05;;;;;;;31.98;16.75;;;;;;;;;;5044839;28;20399;-68
2022/12/31 03:32:30;;;;;;;29.02;16.50;;;;;;;;;;5039265;28;20039;-67
2022/12/31 03:34:56;;;;;;;27.50;15.47;;;;;;;;;;5037304;28;20079;-69
2022/12/31 03:37:21;;;;;;;26.97;15.47;;;;;;;;;;5034475;28;20270;-68
2022/12/31 03:39:46;;;;;;;28.70;15.67;;;;;;;;;;5038735;28;20300;-68
2022/12/31 03:42:11;;;;;;;25.23;15.07;;;;;;;;;;5035018;28;20283;-68
2022/12/31 03:44:36;;;;;;;28.30;15.73;;;;;;;;;;5032790;28;20104;-67
2022/12/31 03:47:02;;;;;;;29.83;15.67;;;;;;;;;;5036686;28;20686;-68
2022/12/31 03:49:27;;;;;;;28.90;16.25;;;;;;;;;;5044107;28;20376;-68
2022/12/31 03:51:52;;;;;;;28.90;15.70;;;;;;;;;;5043850;28;24720;-68
2022/12/31 03:54:17;;;;;;;28.03;15.40;;;;;;;;;;5042475;28;20099;-68
2022/12/31 03:56:43;;;;;;;28.53;16.27;;;;;;;;;;5036133;28;20024;-68
2022/12/31 03:59:08;;;;;;;29.27;16.23;;;;;;;;;;5038984;28;20021;-68
2022/12/31 04:01:33;;;;;;;26.90;15.50;;;;;;;;;;5038231;28;20021;-67
2022/12/31 04:03:58;;;;;;;31.60;16.63;;;;;;;;;;5034215;28;20079;-68
2022/12/31 04:06:24;;;;;;;26.10;14.90;;;;;;;;;;5042136;28;20108;-68
2022/12/31 04:08:49;;;;;;;29.43;15.13;;;;;;;;;;5040370;28;20782;-68
2022/12/31 04:11:14;;;;;;;27.67;14.87;;;;;;;;;;5038075;28;20508;-68
2022/12/31 04:13:39;;;;;;;28.07;15.20;;;;;;;;;;5037528;28;20427;-69
2022/12/31 04:16:04;;;;;;;28.80;15.53;;;;;;;;;;5037039;28;20282;-68
2022/12/31 04:18:30;;;;;;;33.50;14.93;;;;;;;;;;5034311;28;20029;-69
2022/12/31 04:20:59;;;;;;;30.60;15.03;;;;;;;;;;5037534;28;20033;-68
2022/12/31 04:23:25;;;;;;;28.27;15.02;;;;;;;;;;5037004;28;20083;-68
2022/12/31 04:25:50;;;;;;;26.87;15.60;;;;;;;;;;5037139;28;20524;-69
2022/12/31 04:28:15;;;;;;;26.03;14.83;;;;;;;;;;5034173;28;20514;-68
2022/12/31 04:30:42;;;;;;;25.83;15.10;;;;;;;;;;5039794;28;20060;-68
2022/12/31 04:33:07;;;;;;;430.92;93.47;;;;;;;;;;5037143;28;20017;-68
2022/12/31 04:35:32;;;;;;;36.03;18.93;;;;;;;;;;5038973;28;20025;-68
2022/12/31 04:37:57;;;;;;;30.13;16.17;;;;;;;;;;5037355;28;20028;-68
2022/12/31 04:40:22;;;;;;;27.63;14.53;;;;;;;;;;5034728;28;20324;-68
2022/12/31 04:42:48;;;;;;;27.90;14.97;;;;;;;;;;5038174;28;20519;-68
2022/12/31 04:45:13;;;;;;;26.27;14.77;;;;;;;;;;5034266;28;20037;-69
2022/12/31 04:47:38;;;;;;;29.30;15.63;;;;;;;;;;5037839;28;20286;-69
2022/12/31 04:50:04;;;;;;;26.83;13.83;;;;;;;;;;5042172;28;20036;-69
2022/12/31 04:52:29;;;;;;;24.75;14.05;;;;;;;;;;5037796;28;20033;-69
2022/12/31 04:54:54;;;;;;;25.40;14.30;;;;;;;;;;5036978;28;20200;-68
2022/12/31 04:57:19;;;;;;;25.77;14.60;;;;;;;;;;5038652;28;20324;-68
2022/12/31 04:59:45;;;;;;;25.00;13.67;;;;;;;;;;5047988;28;20055;-68
2022/12/31 05:02:10;;;;;;;26.27;14.88;;;;;;;;;;5037209;28;20033;-68
2022/12/31 05:04:35;;;;;;;27.63;14.82;;;;;;;;;;5038092;28;20037;-66
2022/12/31 05:07:00;;;;;;;27.97;14.63;;;;;;;;;;5040371;28;20431;-67
2022/12/31 05:09:27;;;;;;;25.93;14.20;;;;;;;;;;5038218;28;20112;-68
2022/12/31 05:11:52;;;;;;;24.10;13.15;;;;;;;;;;5035972;28;20287;-68
2022/12/31 05:14:17;;;;;;;23.27;13.63;;;;;;;;;;5030960;28;20025;-67
2022/12/31 05:16:42;;;;;;;23.48;13.07;;;;;;;;;;5043556;28;20116;-67
2022/12/31 05:19:08;;;;;;;24.47;13.43;;;;;;;;;;5042023;28;20029;-67
2022/12/31 05:21:33;;;;;;;23.45;13.88;;;;;;;;;;5041480;28;20715;-67
2022/12/31 05:23:59;;;;;;;22.75;13.25;;;;;;;;;;5029380;28;20399;-69
2022/12/31 05:26:24;;;;;;;24.93;13.53;;;;;;;;;;5040453;28;20517;-68
2022/12/31 05:28:49;;;;;;;25.92;13.88;;;;;;;;;;5037714;28;20283;-68
2022/12/31 05:31:14;;;;;;;24.17;13.23;;;;;;;;;;5038125;28;20031;-67
2022/12/31 05:33:40;;;;;;;22.40;13.30;;;;;;;;;;5036087;28;20143;-69
2022/12/31 05:36:05;;;;;;;20.50;12.15;;;;;;;;;;5038664;28;20748;-68
2022/12/31 05:38:30;;;;;;;23.45;12.50;;;;;;;;;;5045443;28;20382;-68
2022/12/31 05:40:59;;;;;;;22.25;12.98;;;;;;;;;;5032283;28;20559;-68
2022/12/31 05:43:25;;;;;;;22.77;12.60;;;;;;;;;;5038432;28;20037;-68
2022/12/31 05:45:50;;;;;;;23.07;13.47;;;;;;;;;;5037845;28;20078;-68
2022/12/31 05:48:15;;;;;;;22.53;13.33;;;;;;;;;;5035257;28;20061;-68
2022/12/31 05:50:40;;;;;;;26.23;13.20;;;;;;;;;;5044776;28;20317;-68
2022/12/31 05:53:06;;;;;;;23.33;13.20;;;;;;;;;;5035807;28;20349;-68
2022/12/31 05:55:31;;;;;;;24.50;13.60;;;;;;;;;;5044894;28;20083;-68
2022/12/31 05:57:56;;;;;;;26.07;13.53;;;;;;;;;;5033992;28;20060;-69
2022/12/31 06:00:21;;;;;;;25.17;13.00;;;;;;;;;;5037986;28;20037;-68
2022/12/31 06:02:46;;;;;;;24.73;12.80;;;;;;;;;;5033328;28;20030;-69
2022/12/31 06:05:12;;;;;;;23.43;12.93;;;;;;;;;;5038888;28;20025;-68
2022/12/31 06:07:37;;;;;;;22.38;13.23;;;;;;;;;;5036281;28;20030;-69
2022/12/31 06:10:02;;;;;;;23.47;13.60;;;;;;;;;;5033930;28;20024;-68
2022/12/31 06:12:28;;;;;;;23.15;13.02;;;;;;;;;;5031332;28;20030;-68
2022/12/31 06:14:53;;;;;;;24.83;13.47;;;;;;;;;;5034177;28;20025;-68
2022/12/31 06:17:19;;;;;;;21.87;13.03;;;;;;;;;;5037088;28;20370;-67
2022/12/31 06:19:45;;;;;;;23.88;13.35;;;;;;;;;;5039716;28;20101;-68
2022/12/31 06:22:10;;;;;;;25.02;12.75;;;;;;;;;;5037149;28;20376;-67
2022/12/31 06:24:35;;;;;;;21.30;12.90;;;;;;;;;;5040545;28;20021;-67
2022/12/31 06:27:01;;;;;;;22.43;13.20;;;;;;;;;;5040851;28;20190;-68
2022/12/31 06:29:26;;;;;;;25.00;13.40;;;;;;;;;;5039053;28;20618;-68
2022/12/31 06:31:51;;;;;;;22.77;12.83;;;;;;;;;;5038278;28;20048;-67
2022/12/31 06:34:17;;;;;;;22.40;13.35;;;;;;;;;;5037885;28;20404;-68
2022/12/31 06:36:42;;;;;;;24.98;13.70;;;;;;;;;;5039915;28;20127;-69
2022/12/31 06:39:07;;;;;;;26.70;14.53;;;;;;;;;;5038459;28;20024;-68
2022/12/31 06:41:32;;;;;;;27.13;14.23;;;;;;;;;;5048764;28;20280;-69
2022/12/31 06:43:58;;;;;;;24.27;14.10;;;;;;;;;;5039009;28;20282;-68
2022/12/31 06:46:23;;;;;;;27.90;14.03;;;;;;;;;;5041289;28;20037;-68
2022/12/31 06:48:48;;;;;;;21.67;13.10;;;;;;;;;;5039618;28;20040;-68
2022/12/31 06:51:16;;;;;;;24.10;14.30;;;;;;;7.59;nan;101564.16;5032579;28;20034;-69
2022/12/31 06:53:42;;;;;;;25.70;13.85;;;;;;;;;;5042044;28;20292;-69
2022/12/31 06:56:09;;;;;;;23.02;13.25;;;;;;;;;;5049372;28;21021;-68
2022/12/31 06:58:35;;;;;;;21.83;13.52;;;;;;;;;;5035134;28;20029;-69
2022/12/31 07:01:26;;;;;;;24.58;13.45;;;;;;;;;;5032379;28;20033;-68
2022/12/31 07:03:59;;;;;;;23.20;13.93;;;;;;;;;;5043734;28;20029;-68
2022/12/31 07:06:24;;;;;;;22.73;12.90;;;;;;;;;;5038628;28;20102;-68
2022/12/31 07:09:01;;;;;;;25.37;14.60;;;;;;;;;;5039808;28;20053;-68
2022/12/31 07:11:34;;;;;;;24.80;14.18;;;;;;;8.50;nan;101746.09;5038914;28;20025;-69
2022/12/31 07:14:10;;;;;;;22.27;12.23;;;;;;;8.08;nan;101676.53;5036749;28;20029;-69
2022/12/31 07:16:51;;;;;;;24.17;13.43;;;;;;;8.08;nan;101673.91;5042396;28;20036;-69
2022/12/31 07:19:24;;;;;;;23.40;12.90;;;;;;;8.10;nan;101677.16;5041629;28;20025;-69
2022/12/31 07:21:52;;;;;;;21.83;12.88;;;;;;;8.05;nan;101663.78;5039111;28;20059;-70
2022/12/31 07:24:18;;;;;;;21.67;13.00;;;;;;;8.02;nan;101653.59;5036952;28;20033;-70
2022/12/31 07:27:02;;;;;;;28.77;16.92;;;;;;;8.12;nan;101667.31;5043582;28;20055;-69
2022/12/31 07:29:36;;;;;;;31.08;16.67;;;;;;;8.12;nan;101669.94;5043350;28;20679;-70
2022/12/31 07:32:17;;;;;;;22.10;13.05;;;;;;;8.13;nan;101665.50;5036298;28;20549;-69
2022/12/31 07:34:45;;;;;;;21.77;13.05;;;;;;;8.15;nan;101677.44;5041182;28;20047;-69
2022/12/31 07:37:23;;;;;;;19.88;12.90;;;;;;;8.17;nan;101688.59;5034576;28;20079;-69
2022/12/31 07:40:07;;;;;;;25.42;14.30;;;;;;;8.16;nan;101689.56;5036160;28;20029;-70
2022/12/31 07:42:49;;;;;;;23.10;13.65;;;;;;;8.15;nan;101698.44;5043295;28;20027;-69
2022/12/31 07:45:25;;;;;;;22.33;14.52;;;;;;;8.09;nan;101689.47;5037292;28;20028;-68
2022/12/31 07:47:51;;;;;;;21.70;14.50;;;;;;;8.13;nan;101700.41;5044898;28;20032;-69
2022/12/31 07:50:18;;;;;;;26.17;13.80;;;;;;;8.10;nan;101709.47;5034086;28;20022;-71
2022/12/31 07:52:44;;;;;;;23.50;13.85;;;;;;;8.08;nan;101706.19;5035483;28;20379;-69
2022/12/31 07:55:10;;;;;;;26.45;16.50;;;;;;;8.10;nan;101706.03;5038653;28;20100;-70
2022/12/31 07:57:53;;;;;;;25.75;15.68;;;;;;;8.09;nan;101705.22;5037842;28;20571;-67
2022/12/31 08:00:19;;;;;;;27.52;15.23;;;;;;;8.08;nan;101700.13;5034378;28;20100;-66
2022/12/31 08:03:16;;;;;;;25.52;14.13;;;;;;;8.06;nan;101702.91;5034883;28;20029;-66
2022/12/31 08:06:25;;;;;;;22.13;12.63;;;;;;;8.10;nan;101704.22;5037551;28;20021;-68
2022/12/31 08:09:39;;;;;;;23.50;13.25;;;;;;;8.10;nan;101713.91;5001780;28;20045;-66
2022/12/31 08:12:06;;;;;;;23.50;14.20;;;;;;;7.73;nan;101646.47;4935194;29;20047;-68
2022/12/31 08:14:39;;;;;;;26.65;16.98;;;;;;;8.07;nan;101695.91;4932064;29;20076;-68
2022/12/31 08:17:04;;;;;;;29.98;18.25;;;;;;;8.09;nan;101704.38;4935266;29;20043;-68
2022/12/31 08:19:31;;;;;;;28.27;15.60;;;;;;;8.10;nan;101706.03;4931196;29;20037;-68
2022/12/31 08:22:18;;;;;;;26.85;14.40;;;;;;;8.14;nan;101703.84;4930945;29;20028;-68
2022/12/31 08:25:17;;;;;;;23.05;13.55;;;;;;;8.17;nan;101716.63;4933586;29;20039;-70
2022/12/31 08:28:26;;;;;;;23.90;13.40;;;;;;;8.17;nan;101714.00;4919004;29;20111;-68
2022/12/31 08:31:04;;;;;;;29.30;13.30;;;;;;;8.24;nan;101715.75;4897415;29;20107;-69
2022/12/31 08:33:29;;;;;;;19.92;12.85;;;;;;;8.28;nan;101732.78;4893581;29;20064;-69
2022/12/31 08:35:54;;;;;;;21.85;14.02;;;;;;;8.32;nan;101717.47;4902586;29;20048;-69
2022/12/31 08:38:57;;;;;;;24.50;13.27;;;;;;;8.38;nan;101718.56;4892369;29;20033;-70
2022/12/31 08:41:33;;;;;;;20.27;12.25;;;;;;;8.40;nan;101714.81;4951136;28;20047;-71
2022/12/31 08:44:12;;;;;;;21.40;12.90;;;;;;;8.48;nan;101721.81;4948042;28;20027;-71
2022/12/31 08:46:53;;;;;;;22.02;13.43;;;;;;;8.52;nan;101716.03;4946518;29;20454;-70
2022/12/31 08:49:19;;;;;;;21.90;13.02;;;;;;;8.51;nan;101705.69;4979106;28;20234;-71
2022/12/31 08:51:45;;;;;;;23.05;13.88;;;;;;;8.69;nan;101737.69;4988287;28;20623;-71
2022/12/31 08:54:11;;;;;;;23.30;15.38;;;;;;;8.76;nan;101731.69;4987789;28;20108;-70
2022/12/31 08:56:43;;;;;;;21.52;13.10;;;;;;;8.85;nan;101738.50;4987015;28;20097;-71
2022/12/31 08:59:44;;;;;;;21.10;13.00;;;;;;;8.91;nan;101737.81;4987597;28;20034;-71
2022/12/31 09:02:24;;;;;;;24.25;13.52;;;;;;;8.96;nan;101732.00;4986909;28;20030;-71
2022/12/31 09:05:08;;;;;;;20.38;13.02;;;;;;;8.99;nan;101742.97;4984185;28;20113;-70
2022/12/31 09:07:45;;;;;;;24.77;14.73;;;;;;;9.02;nan;101752.28;5015372;28;20030;-70
2022/12/31 09:10:33;;;;;;;25.13;14.63;;;;;;;9.03;nan;101752.13;5041410;28;20122;-70
2022/12/31 09:13:21;;;;;;;22.90;14.27;;;;;;;9.04;nan;101759.00;5041394;28;20031;-70
2022/12/31 09:16:11;;;;;;;23.48;14.95;;;;;;;9.04;nan;101760.81;5033461;28;20028;-70
2022/12/31 09:18:39;;;;;;;27.85;14.80;;;;;;;9.01;nan;101754.09;5034968;28;20041;-70
2022/12/31 09:21:07;;;;;;;25.93;13.70;;;;;;;9.07;nan;101752.56;5035596;28;20024;-70
2022/12/31 09:23:32;;;;;;;24.70;16.65;;;;;;;9.11;nan;101754.63;5037419;28;20087;-71
2022/12/31 09:26:18;;;;;;;27.63;16.55;;;;;;;9.16;nan;101754.09;5033175;28;20400;-71
2022/12/31 09:29:13;;;;;;;26.88;17.58;;;;;;;9.18;nan;101760.00;5034163;28;20123;-73
2022/12/31 09:31:52;;;;;;;26.40;18.42;;;;;;;9.19;nan;101758.97;5013825;28;20045;-70
2022/12/31 09:34:29;;;;;;;41.88;24.60;;;;;;;9.23;nan;101757.63;5033706;28;20399;-71
2022/12/31 09:37:01;;;;;;;27.08;17.25;;;;;;;9.13;nan;101736.06;5033282;28;20525;-72
2022/12/31 09:39:40;;;;;;;23.95;15.18;;;;;;;9.28;nan;101759.72;5037174;28;20017;-72
2022/12/31 09:42:53;;;;;;;29.83;18.25;;;;;;;9.30;nan;101741.94;5042151;28;20567;-74
2022/12/31 09:45:47;;;;;;;25.92;16.40;;;;;;;9.29;nan;101733.25;4987087;28;20563;-74
2022/12/31 09:48:37;;;;;;;27.73;15.23;;;;;;;9.35;nan;101747.47;4970422;28;20033;-72
2022/12/31 09:51:17;;;;;;;22.33;14.23;;;;;;;9.38;nan;101744.47;4984589;28;20046;-72
2022/12/31 09:54:01;;;;;;;21.10;13.60;;;;;;;9.41;nan;101746.75;4987499;28;20089;-73
2022/12/31 09:56:43;;;;;;;26.05;15.90;;;;;;;9.31;nan;101725.16;4985588;28;20030;-72
2022/12/31 09:59:44;;;;;;;27.05;15.40;;;;;;;9.44;nan;101741.09;4987248;28;20136;-72
2022/12/31 10:02:46;;;;;;;22.27;14.05;;;;;;;9.47;nan;101734.66;4964482;28;20076;-72
2022/12/31 10:05:21;;;;;;;22.90;14.48;;;;;;;9.51;nan;101738.56;4987599;28;20038;-72
2022/12/31 10:08:07;;;;;;;23.10;14.75;;;;;;;9.54;nan;101746.88;4988875;28;20049;-75
2022/12/31 10:10:50;;;;;;;22.67;13.77;;;;;;;9.57;nan;101751.78;4987517;28;20077;-72
2022/12/31 10:13:47;;;;;;;22.02;13.27;;;;;;;9.62;nan;101753.03;4989037;28;20096;-74
2022/12/31 10:16:35;;;;;;;20.73;12.50;;;;;;;9.63;nan;101747.59;4991650;28;20030;-74
2022/12/31 10:19:26;;;;;;;23.60;11.88;;;;;;;9.74;nan;101754.19;5003756;28;20117;-74
2022/12/31 10:22:11;;;;;;;23.70;12.15;;;;;;;9.82;nan;101759.34;5043310;28;20500;-72
2022/12/31 10:25:14;;;;;;;19.27;12.05;;;;;;;9.88;nan;101755.94;5033402;28;20049;-74
2022/12/31 10:28:16;;;;;;;19.00;12.20;;;;;;;9.92;nan;101738.81;5037124;28;20040;-72
2022/12/31 10:30:52;;;;;;;19.73;11.25;;;;;;;9.98;nan;101737.22;5041980;28;20026;-73
2022/12/31 10:33:27;;;;;;;20.17;12.35;;;;;;;10.01;nan;101736.88;5034855;28;20807;-73
2022/12/31 10:36:14;;;;;;;20.90;12.77;;;;;;;10.07;nan;101728.22;5030827;28;20029;-72
2022/12/31 10:38:53;;;;;;;20.08;11.77;;;;;;;10.21;nan;101737.03;5042499;28;20030;-75
2022/12/31 10:41:25;;;;;;;;;;;;;;;10.36;nan;101729.09;5041976;28;20035;-76
2022/12/31 10:44:24;;;;;;;18.58;11.32;;;;;;;10.45;nan;101716.59;5033383;28;19913;-69
2022/12/31 10:47:14;;;;;;;18.40;10.95;;;;;;;10.66;nan;101713.13;5039487;28;20028;-69
2022/12/31 10:50:13;;;;;;;17.67;11.20;;;;;;;10.79;nan;101698.19;5035730;28;20479;-67
2022/12/31 10:52:49;;;;;;;17.80;11.13;;;;;;;10.86;nan;101691.13;5040857;28;20107;-67
2022/12/31 10:55:24;;;;;;;18.45;11.52;;;;;;;11.06;nan;101708.84;5040684;28;20032;-67
2022/12/31 10:57:49;;;;;;;20.02;11.50;;;;;;;11.17;nan;101713.56;5042015;28;20029;-66
2022/12/31 11:00:22;;;;;;;18.02;11.18;;;;;;;11.14;nan;101692.88;5038345;28;20025;-66
2022/12/31 11:03:25;;;;;;;17.85;10.75;;;;;;;11.37;nan;101707.56;5038186;28;20025;-67
2022/12/31 11:06:18;;;;;;;20.48;11.07;;;;;;;11.44;nan;101700.47;5035048;28;20048;-68
2022/12/31 11:08:59;;;;;;;16.63;10.20;;;;;;;11.23;nan;101654.78;5044725;28;20021;-67
2022/12/31 11:11:45;;;;;;;16.73;10.23;;;;;;;11.62;nan;101699.94;5037234;28;20036;-67
2022/12/31 11:14:25;;;;;;;16.63;10.48;;;;;;;11.67;nan;101697.50;5035936;28;20036;-68
2022/12/31 11:17:23;;;;;;;17.20;10.93;;;;;;;11.70;nan;101702.38;5039494;28;20057;-67
2022/12/31 11:20:22;;;;;;;18.40;10.40;;;;;;;11.69;nan;101704.22;5041822;28;20045;-76
2022/12/31 11:22:50;;;;;;;;;;;;;;;11.71;nan;101709.31;5026702;28;20037;-75
2022/12/31 11:25:28;;;;;;;15.07;9.85;;;;;;;11.71;nan;101712.75;5044471;28;19956;-75
2022/12/31 11:28:06;;;;;;;14.18;9.65;;;;;;;11.73;nan;101711.72;5036397;28;20056;-75
2022/12/31 11:30:45;;;;;;;17.48;9.80;;;;;;;11.64;nan;101704.00;5041207;28;20112;-75
2022/12/31 11:33:32;;;;;;;16.80;9.68;;;;;;;11.74;nan;101726.56;5041773;28;20051;-74
2022/12/31 11:36:45;;;;;;;14.18;9.63;;;;;;;11.73;nan;101714.34;5042300;28;20387;-75
2022/12/31 11:39:32;;;;;;;17.08;9.88;;;;;;;11.55;nan;101684.09;5029539;28;20133;-77
2022/12/31 11:42:08;;;;;;;17.40;9.60;;;;;;;11.73;nan;101709.09;5033311;28;20518;-77
2022/12/31 11:44:49;;;;;;;18.10;9.82;;;;;;;11.75;nan;101712.34;5035969;28;20035;-76
2022/12/31 11:47:41;;;;;;;16.38;9.80;;;;;;;11.75;nan;101705.22;5035848;28;20037;-75
2022/12/31 11:50:12;;;;;;;18.63;11.70;;;;;;;11.77;nan;101712.94;5033934;28;20017;-77
2022/12/31 11:52:58;;;;;;;18.02;11.10;;;;;;;11.79;nan;101722.28;5037912;28;20503;-77
2022/12/31 11:55:45;;;;;;;16.52;10.32;;;;;;;11.82;nan;101723.72;5039113;28;20024;-77
2022/12/31 11:58:15;;;;;;;17.55;10.55;;;;;;;11.83;nan;101712.97;5031625;28;20053;-76
2022/12/31 12:00:50;;;;;;;20.42;10.82;;;;;;;11.86;nan;101720.47;5033291;28;20452;-76
2022/12/31 12:03:15;;;;;;;17.45;10.63;;;;;;;11.57;nan;101674.16;5033581;28;20033;-77
2022/12/31 12:05:41;;;;;;;15.38;10.05;;;;;;;11.82;nan;101713.16;5035525;28;20029;-75
2022/12/31 12:08:06;;;;;;;17.27;10.43;;;;;;;11.82;nan;101702.59;5037533;28;20043;-75
2022/12/31 12:10:41;;;;;;;16.92;10.35;;;;;;;11.95;nan;101713.22;5034873;28;20468;-76
2022/12/31 12:13:12;;;;;;;18.15;10.57;;;;;;;11.98;nan;101717.28;5034609;28;20433;-76
2022/12/31 12:15:41;;;;;;;18.95;11.00;;;;;;;11.84;nan;101693.47;5034987;28;20036;-77
2022/12/31 12:18:22;;;;;;;17.92;10.98;;;;;;;12.00;nan;101716.06;5042797;28;20083;-74
2022/12/31 12:20:47;;;;;;;18.33;11.38;;;;;;;11.90;nan;101702.47;5041853;28;20516;-75
2022/12/31 12:23:23;;;;;;;20.23;11.43;;;;;;;12.01;nan;101716.88;5039059;28;20111;-76
2022/12/31 12:25:49;;;;;;;21.75;11.88;;;;;;;12.00;nan;101716.06;5042795;28;20041;-67
2022/12/31 12:28:17;;;;;;;18.10;11.68;;;;;;;12.00;nan;101713.44;5041443;28;20517;-76
2022/12/31 12:30:44;;;;;;;20.02;11.68;;;;;;;11.95;nan;101701.81;5048979;28;20117;-77
2022/12/31 12:33:18;;;;;;;18.92;11.65;;;;;;;11.98;nan;101702.25;5033864;28;20115;-76
2022/12/31 12:35:44;;;;;;;17.50;11.98;;;;;;;12.06;nan;101696.75;5036103;28;20024;-77
2022/12/31 12:38:20;;;;;;;16.60;11.05;;;;;;;12.07;nan;101711.59;5053498;28;20029;-76
2022/12/31 12:40:55;;;;;;;15.65;11.07;;;;;;;12.11;nan;101712.84;5041645;28;20021;-76
2022/12/31 12:43:25;;;;;;;16.73;10.60;;;;;;;12.12;nan;101725.00;5037193;28;20025;-77
2022/12/31 12:45:53;;;;;;;18.17;11.50;;;;;;;12.08;nan;101712.41;5036049;28;20024;-76
2022/12/31 12:48:30;;;;;;;19.02;12.23;;;;;;;12.09;nan;101716.66;5035487;28;20032;-75
2022/12/31 12:50:56;;;;;;;17.00;11.13;;;;;;;12.06;nan;101717.06;5033408;28;20391;-76
2022/12/31 12:53:28;;;;;;;23.65;13.07;;;;;;;12.11;nan;101727.84;5035283;28;20048;-67
2022/12/31 12:56:11;;;;;;;19.73;12.30;;;;;;;12.11;nan;101723.41;5037466;28;20037;-67
2022/12/31 12:58:58;;;;;;;17.40;11.70;;;;;;;12.10;nan;101715.66;5041477;28;20017;-68